This is the latest recevied weather packets stored in our database for station/object XE2AD-3. If no packets are shown the sender has not sent any weather packets the latest 10 day(s).
| Time | Temp. | Humidity | Pressure | Rain* | Wind** | Luminosity | Snow |
|---|---|---|---|---|---|---|---|
| 1788482666 | 16.11° C | 86% | 800 hPa | - | - | - | - |
| 1788468331 | 30.56° C | 83% | 799.9 hPa | - | - | - | - |
| 1788431280 | 13.89° C | 100% | 802.2 hPa | - | - | - | - |
| 1788426502 | 14.44° C | 100% | 802.3 hPa | - | - | - | - |
| 1788424114 | 14.44° C | 100% | 802.6 hPa | - | - | - | - |
| 1788422918 | 14.44° C | 100% | 802.8 hPa | - | - | - | - |
| 1788421724 | 14.44° C | 100% | 803.1 hPa | - | - | - | - |
| 1788420530 | 14.44° C | 100% | 803.4 hPa | - | - | - | - |
| 1788419340 | 14.44° C | 100% | 803.6 hPa | - | - | - | - |
| 1788418138 | 14.44° C | 100% | 803.7 hPa | - | - | - | - |
| 1788414555 | 13.89° C | 100% | 803.9 hPa | - | - | - | - |
| 1788409773 | 14.44° C | 98% | 803.4 hPa | - | - | - | - |
| 1788407390 | 14.44° C | 98% | 803.5 hPa | - | - | - | - |
| 1788406188 | 14.44° C | 95% | 803 hPa | - | - | - | - |
| 1788403798 | 14.44° C | 92% | 802.4 hPa | - | - | - | - |
| 1788402604 | 14.44° C | 90% | 802.3 hPa | - | - | - | - |
| 1788354796 | 12.78° C | 98% | 803.7 hPa | - | - | - | - |
| 1788351214 | 12.78° C | 95% | 803.6 hPa | - | - | - | - |
| 1788348830 | 13.33° C | 94% | 803.6 hPa | - | - | - | - |
| 1788342861 | 13.33° C | 93% | 803.9 hPa | - | - | - | - |
| 1788330920 | 13.89° C | 91% | 804.5 hPa | - | - | - | - |
| 1788326132 | 14.44° C | 90% | 804.7 hPa | - | - | - | - |
| 1788268757 | 13.33° C | 100% | 802.8 hPa | - | - | - | - |
| 1788259204 | 13.33° C | 90% | 802.4 hPa | - | - | - | - |
| 1788180386 | 13.33° C | 100% | 802.6 hPa | - | - | - | - |
* Rain since midnight (hover to see other rain measurements)
** Current wind speed in m/s (hover to see current wind gust speed)